Архив погоды в Анучино

Метеограмма Анучино
Среда, 23 Августа
Время местн. Темп Ветер Видим Явления Облачность нижн/средн/верх Атм. давл. Влжн Точка росы ВНГО R Сост. почвы Tg s
Напр Скр Прв ур.ст ур.м изм
07:00 +20.1° З,Ю-З 1 - более 50 км ливневый дождь облачно 742 758 +1.2 96% +19.5° 1 км 3 Влажная (без луж) +20° -
04:00 +20.7° З 2 - более 50 км небо без изменений {ливневые осадки} облачно 741 757 -0.5 91% +19.1° 1 км - - - -
01:00 +21.3° Ю,Ю-З 1 - 10 км слабый ливневый дождь облачно 741 758 +0.8 89% +19.4° 1 км - - - -
Вторник, 22 Августа
Время местн. Темп Ветер Видим Явления Облачность нижн/средн/верх Атм. давл. Влжн Точка росы ВНГО R Сост. почвы Tg s
Напр Скр Прв ур.ст ур.м изм
22:00 +21.7° штиль 0 - более 50 км - облачно с прояснениями 741 757 +1 90% +19.9° более 2.5 км - - - -
19:00 +28.5° Ю 1 - более 50 км - облачно с прояснениями 740 755 +0.8 65% +21.2° более 2.5 км 0 - - -
16:00 +30.1° З 2 - более 50 км - переменная облачность 739 755 -1 54% +19.7° 1 км - - - -
13:00 +26.7° Ю 1 - более 50 км - переменная облачность 740 756 -0.2 64% +19.4° 1.5 км - - - -
10:00 +22.3° З,С-З 1 - более 50 км - облачно с прояснениями 740 756 -0.2 76% +17.8° 1 км - - - -
07:00 +16.6° Ю-З 1 - более 50 км - облачно 740 757 +0.8 94% +15.7° более 2.5 км 0 Сухая (без трещин) +16° -
04:00 +15.9° Ю,Ю-З 1 - более 50 км - ясно 740 756 -0.7 96% +15.2° более 2.5 км - - - -
01:00 +17.9° З 1 - более 50 км - ясно 740 757 -0.3 87% +15.7° более 2.5 км - - - -
Понедельник, 21 Августа
Время местн. Темп Ветер Видим Явления Облачность нижн/средн/верх Атм. давл. Влжн Точка росы ВНГО R Сост. почвы Tg s
Напр Скр Прв ур.ст ур.м изм
22:00 +17.7° Ю 1 - более 50 км - ясно 741 757 -0.3 86% +15.3° более 2.5 км - - - -
19:00 +23.3° Ю 1 - более 50 км - переменная облачность 741 757 -0.5 57% +14.3° более 2.5 км 0 - - -
16:00 +24.6° Ю,Ю-З 1 - более 50 км - облачно с прояснениями 741 757 -0.8 54% +14.7° 1 км - - - -
13:00 +22.8° З 1 - более 50 км - облачно 742 758 -0.8 69% +16.9° 1 км - - - -
10:00 +18.9° штиль 0 - более 50 км - облачно 743 759 -0.4 82% +15.8° более 2.5 км - - - -
07:00 +15° Ю,Ю-З 1 - более 50 км - преимущественно облачно 743 760 -0.1 96% +14.3° 600 м 0 Сухая (без трещин) +16° -
04:00 +16.1° Ю,Ю-З 1 - более 50 км - ясно 743 760 -0.4 93% +15° более 2.5 км - - - -
01:00 +18.5° Ю 1 - более 50 км - облачно с прояснениями 744 760 -0.4 85% +15.9° более 2.5 км - - - -
Воскресенье, 20 Августа
Время местн. Темп Ветер Видим Явления Облачность нижн/средн/верх Атм. давл. Влжн Точка росы ВНГО R Сост. почвы Tg s
Напр Скр Прв ур.ст ур.м изм
22:00 +21.1° Ю-З 1 - более 50 км - ясно 744 760 +1.3 74% +16.2° более 2.5 км - - - -
19:00 +27.1° З,Ю-З 3 - более 50 км - ясно 743 759 0 48% +15.3° более 2.5 км 0 - - -
16:00 +30.8° З 2 - более 50 км - незначительная облачность 743 759 -1.1 39% +15.4° 1 км - - - -
13:00 +28.8° Ю-З 1 - более 50 км - ясно 744 760 -1.3 46% +16.1° более 2.5 км - - - -
10:00 +21.1° З,Ю-З 2 - более 50 км - ясно 745 761 -0.2 81% +17.7° более 2.5 км - - - -
07:00 +16.2° З 1 - более 50 км - переменная облачность 745 762 +0.3 96% +15.5° 600 м 0 Сухая (без трещин) +17° -
04:00 +16° З 2 - более 50 км - ясно 745 762 -0.3 96% +15.4° более 2.5 км - - - -